Monterey, Indiana
Current Conditions -  °F | °C
As of 1:15 PM on Saturday 25 Oct 2014 (Local Time) from KOXI Reporting Station
Clear Clear  
Wind Chill: 70°   Ceiling: Unl
Heat Index: 70°   Visibility: 10mi
Dew Point: 41°   Wind: 12mph
Humidity: 35%   Direction: 320°NW
Pressure: 29.93"   Gusts: 22mph
Location:  41.16°N, 86.48°W
Report Text: KOXI 251815Z AUTO 32010G19KT 10SM CLR 21/05 A2993 RMK AO1 T02100050
Loading
Personal Weather Stations






























Interactive Weather Map
Tropical Storm Tracking
New forecast layout! Learn more

10-Day Weather Forecast

Advertisements
Track Severe Weather on mobile